Hondo, Texas
Current Conditions -  °F | °C
As of 5:51 PM on Sunday 23 Nov 2014 (Local Time) from KHDO Reporting Station
Clear Clear  
Wind Chill: 64°   Ceiling: Unl
Heat Index: 64°   Visibility: 10mi
Dew Point: 42°   Wind: 10mph
Humidity: 45%   Direction: 270°W
Pressure: 29.64"   Gusts: NA
Location:  29.35°N, 99.14°W
Report Text: KHDO 232351Z AUTO 27009KT 10SM CLR 18/06 A2964 RMK AO2 SLP030 T01780056 10256 20178 53013
Loading
Personal Weather Stations






























Interactive Weather Map New forecast layout! Learn more

10-Day Weather Forecast

Advertisements
Track Severe Weather on mobile